Metar z połowy godziny Komunikat METAR ze strony awiacja.imgw.pl Metar G30 EPBY METAR EPBY 101530Z 10005KT 060V160 9999 TS FEW049CB 21/20 Q1006=